sensor_id;sensor_type;location;lat;lon;timestamp;temperature;humidity
780;DHT22;373;49.342;8.146;2024-02-21T00:00:48;10.40;1.00
780;DHT22;373;49.342;8.146;2024-02-21T00:03:16;10.20;1.00
780;DHT22;373;49.342;8.146;2024-02-21T00:05:43;10.30;1.00
780;DHT22;373;49.342;8.146;2024-02-21T00:08:10;10.30;1.00
780;DHT22;373;49.342;8.146;2024-02-21T00:10:37;10.00;1.00
780;DHT22;373;49.342;8.146;2024-02-21T00:13:04;10.00;1.00
780;DHT22;373;49.342;8.146;2024-02-21T00:15:31;10.30;1.00
780;DHT22;373;49.342;8.146;2024-02-21T00:17:58;10.50;1.00
780;DHT22;373;49.342;8.146;2024-02-21T00:20:27;10.40;1.00
780;DHT22;373;49.342;8.146;2024-02-21T00:22:54;10.30;1.00
780;DHT22;373;49.342;8.146;2024-02-21T00:25:21;10.10;1.00
780;DHT22;373;49.342;8.146;2024-02-21T00:27:48;9.90;99.90
780;DHT22;373;49.342;8.146;2024-02-21T00:30:15;9.90;1.00
780;DHT22;373;49.342;8.146;2024-02-21T00:32:42;9.90;1.00
780;DHT22;373;49.342;8.146;2024-02-21T00:35:09;10.00;1.00
780;DHT22;373;49.342;8.146;2024-02-21T00:37:37;9.90;99.90
780;DHT22;373;49.342;8.146;2024-02-21T00:40:05;9.90;99.90
780;DHT22;373;49.342;8.146;2024-02-21T00:42:33;9.80;1.00
780;DHT22;373;49.342;8.146;2024-02-21T00:45:00;10.00;99.90
780;DHT22;373;49.342;8.146;2024-02-21T00:47:27;9.70;1.00
780;DHT22;373;49.342;8.146;2024-02-21T00:49:54;9.70;1.00
780;DHT22;373;49.342;8.146;2024-02-21T00:52:21;9.80;99.90
780;DHT22;373;49.342;8.146;2024-02-21T00:54:50;9.90;99.90
780;DHT22;373;49.342;8.146;2024-02-21T00:57:17;10.20;1.00
780;DHT22;373;49.342;8.146;2024-02-21T00:59:44;10.20;1.00
780;DHT22;373;49.342;8.146;2024-02-21T01:02:11;10.20;1.00
780;DHT22;373;49.342;8.146;2024-02-21T01:04:38;10.20;99.90
780;DHT22;373;49.342;8.146;2024-02-21T01:07:05;10.30;1.00
780;DHT22;373;49.342;8.146;2024-02-21T01:09:32;10.00;99.90
780;DHT22;373;49.342;8.146;2024-02-21T01:12:00;10.10;1.00
780;DHT22;373;49.342;8.146;2024-02-21T01:14:27;10.00;1.00
780;DHT22;373;49.342;8.146;2024-02-21T01:16:54;9.70;99.90
780;DHT22;373;49.342;8.146;2024-02-21T01:19:22;9.70;99.90
780;DHT22;373;49.342;8.146;2024-02-21T01:21:48;9.90;99.90
780;DHT22;373;49.342;8.146;2024-02-21T01:24:16;9.90;1.00
780;DHT22;373;49.342;8.146;2024-02-21T01:26:43;9.90;34.60
780;DHT22;373;49.342;8.146;2024-02-21T01:29:11;10.00;1.00
780;DHT22;373;49.342;8.146;2024-02-21T01:31:38;9.80;1.00
780;DHT22;373;49.342;8.146;2024-02-21T01:34:05;9.90;36.50
780;DHT22;373;49.342;8.146;2024-02-21T01:36:32;10.00;36.40
780;DHT22;373;49.342;8.146;2024-02-21T01:39:00;10.00;99.90
780;DHT22;373;49.342;8.146;2024-02-21T01:41:29;9.90;77.30
780;DHT22;373;49.342;8.146;2024-02-21T01:43:56;9.80;1.00
780;DHT22;373;49.342;8.146;2024-02-21T01:46:25;9.80;99.90
780;DHT22;373;49.342;8.146;2024-02-21T01:48:54;10.00;99.90
780;DHT22;373;49.342;8.146;2024-02-21T01:51:21;10.00;99.90
780;DHT22;373;49.342;8.146;2024-02-21T01:53:50;10.10;99.90
780;DHT22;373;49.342;8.146;2024-02-21T01:56:17;10.10;1.00
780;DHT22;373;49.342;8.146;2024-02-21T01:58:46;10.30;99.90
780;DHT22;373;49.342;8.146;2024-02-21T02:01:15;10.30;1.00
780;DHT22;373;49.342;8.146;2024-02-21T02:03:45;10.30;1.00
780;DHT22;373;49.342;8.146;2024-02-21T02:06:12;10.00;99.90
780;DHT22;373;49.342;8.146;2024-02-21T02:08:39;10.00;99.90
780;DHT22;373;49.342;8.146;2024-02-21T02:11:06;9.90;99.90
780;DHT22;373;49.342;8.146;2024-02-21T02:13:34;10.00;61.90
780;DHT22;373;49.342;8.146;2024-02-21T02:16:01;10.10;1.00
780;DHT22;373;49.342;8.146;2024-02-21T02:18:28;10.00;1.00
780;DHT22;373;49.342;8.146;2024-02-21T02:20:56;9.90;99.90
780;DHT22;373;49.342;8.146;2024-02-21T02:23:25;9.90;99.90
780;DHT22;373;49.342;8.146;2024-02-21T02:25:53;9.90;1.00
780;DHT22;373;49.342;8.146;2024-02-21T02:28:21;10.00;99.90
780;DHT22;373;49.342;8.146;2024-02-21T02:30:51;10.10;1.00
780;DHT22;373;49.342;8.146;2024-02-21T02:33:18;9.90;99.90
780;DHT22;373;49.342;8.146;2024-02-21T02:35:45;9.60;99.90
780;DHT22;373;49.342;8.146;2024-02-21T02:38:12;9.70;1.00
780;DHT22;373;49.342;8.146;2024-02-21T02:40:42;9.40;1.00
780;DHT22;373;49.342;8.146;2024-02-21T02:43:09;9.50;1.00
780;DHT22;373;49.342;8.146;2024-02-21T02:45:36;9.30;1.00
780;DHT22;373;49.342;8.146;2024-02-21T02:48:03;9.20;1.00
780;DHT22;373;49.342;8.146;2024-02-21T02:50:31;9.20;1.00
780;DHT22;373;49.342;8.146;2024-02-21T02:52:58;9.30;1.00
780;DHT22;373;49.342;8.146;2024-02-21T02:55:25;9.30;1.00
780;DHT22;373;49.342;8.146;2024-02-21T02:57:54;9.30;1.00
780;DHT22;373;49.342;8.146;2024-02-21T03:00:21;9.30;1.00
780;DHT22;373;49.342;8.146;2024-02-21T03:02:49;9.20;1.00
780;DHT22;373;49.342;8.146;2024-02-21T03:05:18;9.30;1.00
780;DHT22;373;49.342;8.146;2024-02-21T03:07:45;9.20;1.00
780;DHT22;373;49.342;8.146;2024-02-21T03:10:13;9.40;1.00
780;DHT22;373;49.342;8.146;2024-02-21T03:12:42;9.30;1.00
780;DHT22;373;49.342;8.146;2024-02-21T03:15:11;9.40;1.00
780;DHT22;373;49.342;8.146;2024-02-21T03:17:38;9.50;1.00
780;DHT22;373;49.342;8.146;2024-02-21T03:20:07;9.50;1.00
780;DHT22;373;49.342;8.146;2024-02-21T03:22:35;9.60;1.00
780;DHT22;373;49.342;8.146;2024-02-21T03:25:03;9.50;1.00
780;DHT22;373;49.342;8.146;2024-02-21T03:27:30;9.40;1.00
780;DHT22;373;49.342;8.146;2024-02-21T03:29:57;9.30;1.00
780;DHT22;373;49.342;8.146;2024-02-21T03:32:26;9.20;1.00
780;DHT22;373;49.342;8.146;2024-02-21T03:34:54;9.20;1.00
780;DHT22;373;49.342;8.146;2024-02-21T03:37:21;9.50;1.00
780;DHT22;373;49.342;8.146;2024-02-21T03:39:48;9.20;1.00
780;DHT22;373;49.342;8.146;2024-02-21T03:42:15;9.20;1.00
780;DHT22;373;49.342;8.146;2024-02-21T03:44:42;9.10;1.00
780;DHT22;373;49.342;8.146;2024-02-21T03:47:09;9.20;1.00
780;DHT22;373;49.342;8.146;2024-02-21T03:49:38;9.20;1.00
780;DHT22;373;49.342;8.146;2024-02-21T03:52:05;9.10;1.00
780;DHT22;373;49.342;8.146;2024-02-21T03:54:33;9.30;1.00
780;DHT22;373;49.342;8.146;2024-02-21T03:57:00;9.20;1.00
780;DHT22;373;49.342;8.146;2024-02-21T03:59:28;9.20;1.00
780;DHT22;373;49.342;8.146;2024-02-21T04:01:55;9.20;1.00
780;DHT22;373;49.342;8.146;2024-02-21T04:04:22;9.30;1.00
780;DHT22;373;49.342;8.146;2024-02-21T04:06:51;9.20;1.00
780;DHT22;373;49.342;8.146;2024-02-21T04:09:18;9.10;1.00
780;DHT22;373;49.342;8.146;2024-02-21T04:11:45;9.10;1.00
780;DHT22;373;49.342;8.146;2024-02-21T04:14:12;9.00;1.00
780;DHT22;373;49.342;8.146;2024-02-21T04:16:40;8.90;1.00
780;DHT22;373;49.342;8.146;2024-02-21T04:19:07;8.90;1.00
780;DHT22;373;49.342;8.146;2024-02-21T04:21:34;8.80;1.00
780;DHT22;373;49.342;8.146;2024-02-21T04:24:03;8.70;1.00
780;DHT22;373;49.342;8.146;2024-02-21T04:26:31;8.60;1.00
780;DHT22;373;49.342;8.146;2024-02-21T04:28:58;8.40;1.00
780;DHT22;373;49.342;8.146;2024-02-21T04:31:25;8.60;1.00
780;DHT22;373;49.342;8.146;2024-02-21T04:33:52;8.60;1.00
780;DHT22;373;49.342;8.146;2024-02-21T04:36:19;8.60;1.00
780;DHT22;373;49.342;8.146;2024-02-21T04:38:47;8.80;1.00
780;DHT22;373;49.342;8.146;2024-02-21T04:41:16;8.80;1.00
780;DHT22;373;49.342;8.146;2024-02-21T04:43:43;8.90;1.00
780;DHT22;373;49.342;8.146;2024-02-21T04:46:10;8.80;1.00
780;DHT22;373;49.342;8.146;2024-02-21T04:48:37;8.80;1.00
780;DHT22;373;49.342;8.146;2024-02-21T04:51:05;8.90;1.00
780;DHT22;373;49.342;8.146;2024-02-21T04:53:33;8.80;1.00
780;DHT22;373;49.342;8.146;2024-02-21T04:56:00;8.90;1.00
780;DHT22;373;49.342;8.146;2024-02-21T04:58:29;9.10;1.00
780;DHT22;373;49.342;8.146;2024-02-21T05:00:56;9.30;1.00
780;DHT22;373;49.342;8.146;2024-02-21T05:03:24;9.00;1.00
780;DHT22;373;49.342;8.146;2024-02-21T05:05:51;8.90;1.00
780;DHT22;373;49.342;8.146;2024-02-21T05:08:18;8.90;1.00
780;DHT22;373;49.342;8.146;2024-02-21T05:10:45;8.70;1.00
780;DHT22;373;49.342;8.146;2024-02-21T05:13:13;8.30;1.00
780;DHT22;373;49.342;8.146;2024-02-21T05:15:42;7.90;1.00
780;DHT22;373;49.342;8.146;2024-02-21T05:18:10;7.80;24.50
780;DHT22;373;49.342;8.146;2024-02-21T05:20:37;7.30;99.90
780;DHT22;373;49.342;8.146;2024-02-21T05:23:04;7.20;99.90
780;DHT22;373;49.342;8.146;2024-02-21T05:25:31;7.30;99.90
780;DHT22;373;49.342;8.146;2024-02-21T05:46:11;7.60;1.00
780;DHT22;373;49.342;8.146;2024-02-21T05:48:38;7.30;80.10
780;DHT22;373;49.342;8.146;2024-02-21T05:51:05;7.40;57.80
780;DHT22;373;49.342;8.146;2024-02-21T05:53:32;7.40;51.70
780;DHT22;373;49.342;8.146;2024-02-21T05:56:00;7.70;34.90
780;DHT22;373;49.342;8.146;2024-02-21T05:58:27;7.70;18.50
780;DHT22;373;49.342;8.146;2024-02-21T06:00:55;7.80;1.00
780;DHT22;373;49.342;8.146;2024-02-21T06:03:23;7.90;1.00
780;DHT22;373;49.342;8.146;2024-02-21T06:05:50;8.00;1.00
780;DHT22;373;49.342;8.146;2024-02-21T06:08:17;8.10;1.00
780;DHT22;373;49.342;8.146;2024-02-21T06:10:44;8.00;1.00
780;DHT22;373;49.342;8.146;2024-02-21T06:13:11;8.00;1.00
780;DHT22;373;49.342;8.146;2024-02-21T06:15:38;8.10;1.00
780;DHT22;373;49.342;8.146;2024-02-21T06:18:05;8.30;1.00
780;DHT22;373;49.342;8.146;2024-02-21T06:20:34;8.50;1.00
780;DHT22;373;49.342;8.146;2024-02-21T06:23:02;8.50;1.00
780;DHT22;373;49.342;8.146;2024-02-21T06:25:29;8.80;1.00
780;DHT22;373;49.342;8.146;2024-02-21T06:27:56;8.80;1.00
780;DHT22;373;49.342;8.146;2024-02-21T06:30:23;8.80;1.00
780;DHT22;373;49.342;8.146;2024-02-21T06:32:50;9.00;99.90
780;DHT22;373;49.342;8.146;2024-02-21T06:35:17;8.90;99.90
780;DHT22;373;49.342;8.146;2024-02-21T06:37:45;9.00;99.90
780;DHT22;373;49.342;8.146;2024-02-21T06:40:16;8.70;99.90
780;DHT22;373;49.342;8.146;2024-02-21T06:42:43;8.50;1.00
780;DHT22;373;49.342;8.146;2024-02-21T06:45:10;8.40;1.00
780;DHT22;373;49.342;8.146;2024-02-21T06:47:37;8.50;1.00
780;DHT22;373;49.342;8.146;2024-02-21T06:50:05;8.90;1.00
780;DHT22;373;49.342;8.146;2024-02-21T06:52:32;8.70;1.00
780;DHT22;373;49.342;8.146;2024-02-21T06:55:01;9.10;99.90
780;DHT22;373;49.342;8.146;2024-02-21T06:57:28;8.90;99.90
780;DHT22;373;49.342;8.146;2024-02-21T06:59:56;9.10;99.90
780;DHT22;373;49.342;8.146;2024-02-21T07:02:23;9.10;99.90
780;DHT22;373;49.342;8.146;2024-02-21T07:04:50;9.20;99.90
780;DHT22;373;49.342;8.146;2024-02-21T07:07:17;9.40;99.90
780;DHT22;373;49.342;8.146;2024-02-21T07:09:44;9.30;99.90
780;DHT22;373;49.342;8.146;2024-02-21T07:12:15;9.40;1.00
780;DHT22;373;49.342;8.146;2024-02-21T07:14:42;9.00;99.90
780;DHT22;373;49.342;8.146;2024-02-21T07:17:09;9.20;1.00
780;DHT22;373;49.342;8.146;2024-02-21T07:19:36;9.30;1.00
780;DHT22;373;49.342;8.146;2024-02-21T07:22:03;9.00;70.40
780;DHT22;373;49.342;8.146;2024-02-21T07:24:30;8.70;1.00
780;DHT22;373;49.342;8.146;2024-02-21T07:26:58;8.50;1.00
780;DHT22;373;49.342;8.146;2024-02-21T07:29:31;8.70;1.00
780;DHT22;373;49.342;8.146;2024-02-21T07:31:58;9.00;1.00
780;DHT22;373;49.342;8.146;2024-02-21T07:34:25;9.10;1.00
780;DHT22;373;49.342;8.146;2024-02-21T07:36:52;9.50;99.90
780;DHT22;373;49.342;8.146;2024-02-21T07:39:19;9.20;99.90
780;DHT22;373;49.342;8.146;2024-02-21T07:41:46;9.40;99.90
780;DHT22;373;49.342;8.146;2024-02-21T07:44:14;9.20;1.00
780;DHT22;373;49.342;8.146;2024-02-21T07:46:43;8.60;1.00
780;DHT22;373;49.342;8.146;2024-02-21T07:49:10;8.40;1.00
780;DHT22;373;49.342;8.146;2024-02-21T07:51:37;8.10;1.00
780;DHT22;373;49.342;8.146;2024-02-21T07:54:04;8.10;1.00
780;DHT22;373;49.342;8.146;2024-02-21T07:56:31;7.70;21.70
780;DHT22;373;49.342;8.146;2024-02-21T07:58:58;7.70;49.10
780;DHT22;373;49.342;8.146;2024-02-21T08:01:25;7.70;57.60
780;DHT22;373;49.342;8.146;2024-02-21T08:03:53;7.80;54.10
780;DHT22;373;49.342;8.146;2024-02-21T08:06:20;7.80;51.90
780;DHT22;373;49.342;8.146;2024-02-21T08:08:48;7.60;55.80
780;DHT22;373;49.342;8.146;2024-02-21T08:11:15;7.50;73.50
780;DHT22;373;49.342;8.146;2024-02-21T08:13:42;7.70;97.30
780;DHT22;373;49.342;8.146;2024-02-21T08:16:09;7.70;67.20
780;DHT22;373;49.342;8.146;2024-02-21T08:18:36;7.60;98.20
780;DHT22;373;49.342;8.146;2024-02-21T08:21:05;7.70;89.60
780;DHT22;373;49.342;8.146;2024-02-21T08:23:33;7.80;62.80
780;DHT22;373;49.342;8.146;2024-02-21T08:26:03;7.90;95.70
780;DHT22;373;49.342;8.146;2024-02-21T08:28:30;8.40;59.80
780;DHT22;373;49.342;8.146;2024-02-21T08:30:57;8.80;12.10
780;DHT22;373;49.342;8.146;2024-02-21T08:33:24;9.10;1.00
780;DHT22;373;49.342;8.146;2024-02-21T08:35:51;9.40;1.00
780;DHT22;373;49.342;8.146;2024-02-21T08:38:19;9.30;1.00
780;DHT22;373;49.342;8.146;2024-02-21T08:40:46;9.10;1.00
780;DHT22;373;49.342;8.146;2024-02-21T08:43:13;8.90;1.00
780;DHT22;373;49.342;8.146;2024-02-21T08:45:40;8.90;1.00
780;DHT22;373;49.342;8.146;2024-02-21T08:48:07;9.20;1.00
780;DHT22;373;49.342;8.146;2024-02-21T08:50:35;9.60;1.00
780;DHT22;373;49.342;8.146;2024-02-21T08:53:02;10.10;99.90
780;DHT22;373;49.342;8.146;2024-02-21T08:55:30;10.20;91.70
780;DHT22;373;49.342;8.146;2024-02-21T08:57:58;10.40;99.90
780;DHT22;373;49.342;8.146;2024-02-21T09:00:25;10.70;1.00
780;DHT22;373;49.342;8.146;2024-02-21T09:02:52;10.50;1.00
780;DHT22;373;49.342;8.146;2024-02-21T09:05:21;10.50;1.00
780;DHT22;373;49.342;8.146;2024-02-21T09:07:48;10.40;99.90
780;DHT22;373;49.342;8.146;2024-02-21T09:10:15;10.50;99.90
780;DHT22;373;49.342;8.146;2024-02-21T09:13:04;10.10;99.90
780;DHT22;373;49.342;8.146;2024-02-21T09:15:31;10.20;1.00
780;DHT22;373;49.342;8.146;2024-02-21T09:17:58;10.50;99.60
780;DHT22;373;49.342;8.146;2024-02-21T09:20:25;10.70;1.00
780;DHT22;373;49.342;8.146;2024-02-21T09:22:52;11.00;99.90
780;DHT22;373;49.342;8.146;2024-02-21T09:25:19;10.90;99.90
780;DHT22;373;49.342;8.146;2024-02-21T09:27:46;10.70;99.90
780;DHT22;373;49.342;8.146;2024-02-21T09:30:15;10.90;27.80
780;DHT22;373;49.342;8.146;2024-02-21T09:32:42;11.20;1.00
780;DHT22;373;49.342;8.146;2024-02-21T09:35:09;11.00;99.90
780;DHT22;373;49.342;8.146;2024-02-21T09:37:38;10.90;99.90
780;DHT22;373;49.342;8.146;2024-02-21T09:40:06;10.80;1.00
780;DHT22;373;49.342;8.146;2024-02-21T09:42:37;10.70;99.90
780;DHT22;373;49.342;8.146;2024-02-21T09:45:08;10.50;99.90
780;DHT22;373;49.342;8.146;2024-02-21T09:47:42;10.80;99.90
780;DHT22;373;49.342;8.146;2024-02-21T09:50:10;10.80;1.00
780;DHT22;373;49.342;8.146;2024-02-21T09:52:38;10.80;99.90
780;DHT22;373;49.342;8.146;2024-02-21T09:55:07;11.20;1.00
780;DHT22;373;49.342;8.146;2024-02-21T09:57:37;11.10;1.00
780;DHT22;373;49.342;8.146;2024-02-21T10:00:06;11.20;1.00
780;DHT22;373;49.342;8.146;2024-02-21T10:02:40;11.10;99.90
780;DHT22;373;49.342;8.146;2024-02-21T10:05:07;11.10;99.90
780;DHT22;373;49.342;8.146;2024-02-21T10:07:34;11.20;1.00
780;DHT22;373;49.342;8.146;2024-02-21T10:10:02;11.30;1.00
780;DHT22;373;49.342;8.146;2024-02-21T10:12:29;11.60;99.90
780;DHT22;373;49.342;8.146;2024-02-21T10:15:03;11.60;48.00
780;DHT22;373;49.342;8.146;2024-02-21T10:17:30;11.30;99.90
780;DHT22;373;49.342;8.146;2024-02-21T10:20:08;11.00;99.90
780;DHT22;373;49.342;8.146;2024-02-21T10:22:37;11.10;1.00
780;DHT22;373;49.342;8.146;2024-02-21T10:25:08;11.20;99.90
780;DHT22;373;49.342;8.146;2024-02-21T10:27:36;11.40;1.00
780;DHT22;373;49.342;8.146;2024-02-21T10:30:04;11.30;99.90
780;DHT22;373;49.342;8.146;2024-02-21T10:32:32;11.20;99.90
780;DHT22;373;49.342;8.146;2024-02-21T10:35:03;11.20;99.90
780;DHT22;373;49.342;8.146;2024-02-21T10:37:32;11.30;99.90
780;DHT22;373;49.342;8.146;2024-02-21T10:39:59;11.60;99.90
780;DHT22;373;49.342;8.146;2024-02-21T10:42:29;11.80;1.00
780;DHT22;373;49.342;8.146;2024-02-21T10:45:01;11.70;1.00
780;DHT22;373;49.342;8.146;2024-02-21T10:47:32;11.70;1.00
780;DHT22;373;49.342;8.146;2024-02-21T10:50:03;11.50;99.90
780;DHT22;373;49.342;8.146;2024-02-21T10:52:43;11.70;80.50
780;DHT22;373;49.342;8.146;2024-02-21T10:55:19;11.60;1.00
780;DHT22;373;49.342;8.146;2024-02-21T10:57:50;11.50;1.00
780;DHT22;373;49.342;8.146;2024-02-21T11:00:18;11.70;1.00
780;DHT22;373;49.342;8.146;2024-02-21T11:02:45;11.50;1.00
780;DHT22;373;49.342;8.146;2024-02-21T11:05:14;11.30;1.00
780;DHT22;373;49.342;8.146;2024-02-21T11:07:43;11.70;1.00
780;DHT22;373;49.342;8.146;2024-02-21T11:10:20;11.90;99.90
780;DHT22;373;49.342;8.146;2024-02-21T11:12:52;11.70;1.00
780;DHT22;373;49.342;8.146;2024-02-21T11:15:19;11.70;1.00
780;DHT22;373;49.342;8.146;2024-02-21T11:17:54;11.40;1.00
780;DHT22;373;49.342;8.146;2024-02-21T11:20:32;11.50;39.80
780;DHT22;373;49.342;8.146;2024-02-21T11:23:01;11.50;1.00
780;DHT22;373;49.342;8.146;2024-02-21T11:25:28;11.40;1.00
780;DHT22;373;49.342;8.146;2024-02-21T11:28:00;11.50;1.00
780;DHT22;373;49.342;8.146;2024-02-21T11:30:29;11.60;1.00
780;DHT22;373;49.342;8.146;2024-02-21T11:33:03;11.80;1.00
780;DHT22;373;49.342;8.146;2024-02-21T11:35:33;11.60;1.00
780;DHT22;373;49.342;8.146;2024-02-21T11:38:12;11.50;1.00
780;DHT22;373;49.342;8.146;2024-02-21T11:40:43;11.30;99.90
780;DHT22;373;49.342;8.146;2024-02-21T11:43:11;11.00;99.90
780;DHT22;373;49.342;8.146;2024-02-21T11:45:39;10.90;99.90
780;DHT22;373;49.342;8.146;2024-02-21T11:48:06;10.70;99.90
780;DHT22;373;49.342;8.146;2024-02-21T11:50:34;10.70;99.90
780;DHT22;373;49.342;8.146;2024-02-21T11:53:02;10.60;1.00
780;DHT22;373;49.342;8.146;2024-02-21T11:55:31;10.50;99.90
780;DHT22;373;49.342;8.146;2024-02-21T11:57:58;10.40;99.90
780;DHT22;373;49.342;8.146;2024-02-21T12:00:26;10.50;1.00
780;DHT22;373;49.342;8.146;2024-02-21T12:02:53;10.40;99.90
780;DHT22;373;49.342;8.146;2024-02-21T12:05:28;10.70;1.00
780;DHT22;373;49.342;8.146;2024-02-21T12:07:55;10.80;99.90
780;DHT22;373;49.342;8.146;2024-02-21T12:10:24;10.90;99.90
780;DHT22;373;49.342;8.146;2024-02-21T12:13:04;11.00;99.90
780;DHT22;373;49.342;8.146;2024-02-21T12:15:32;11.00;99.90
780;DHT22;373;49.342;8.146;2024-02-21T12:17:59;10.90;99.90
780;DHT22;373;49.342;8.146;2024-02-21T12:20:27;11.00;99.90
780;DHT22;373;49.342;8.146;2024-02-21T12:22:54;11.00;1.00
780;DHT22;373;49.342;8.146;2024-02-21T12:25:22;10.80;99.90
780;DHT22;373;49.342;8.146;2024-02-21T12:27:51;10.80;88.90
780;DHT22;373;49.342;8.146;2024-02-21T12:30:20;10.80;33.40
780;DHT22;373;49.342;8.146;2024-02-21T12:32:47;10.90;99.90
780;DHT22;373;49.342;8.146;2024-02-21T12:35:15;11.00;1.00
780;DHT22;373;49.342;8.146;2024-02-21T12:37:43;11.10;99.90
780;DHT22;373;49.342;8.146;2024-02-21T12:40:11;11.10;99.90
780;DHT22;373;49.342;8.146;2024-02-21T12:42:39;11.10;46.80
780;DHT22;373;49.342;8.146;2024-02-21T12:45:06;11.10;99.90
780;DHT22;373;49.342;8.146;2024-02-21T12:47:35;11.30;99.90
780;DHT22;373;49.342;8.146;2024-02-21T12:50:03;11.30;1.00
780;DHT22;373;49.342;8.146;2024-02-21T12:52:32;11.30;99.90
780;DHT22;373;49.342;8.146;2024-02-21T12:54:59;11.40;1.00
780;DHT22;373;49.342;8.146;2024-02-21T12:57:26;11.40;99.90
780;DHT22;373;49.342;8.146;2024-02-21T12:59:56;11.50;1.00
780;DHT22;373;49.342;8.146;2024-02-21T13:02:23;11.40;41.80
780;DHT22;373;49.342;8.146;2024-02-21T13:04:51;11.40;99.90
780;DHT22;373;49.342;8.146;2024-02-21T13:07:18;11.40;99.90
780;DHT22;373;49.342;8.146;2024-02-21T13:09:46;11.30;1.00
780;DHT22;373;49.342;8.146;2024-02-21T13:12:13;11.30;1.00
780;DHT22;373;49.342;8.146;2024-02-21T13:14:40;11.30;99.90
780;DHT22;373;49.342;8.146;2024-02-21T13:17:09;11.40;51.70
780;DHT22;373;49.342;8.146;2024-02-21T13:19:36;11.40;99.90
780;DHT22;373;49.342;8.146;2024-02-21T13:22:05;11.40;88.00
780;DHT22;373;49.342;8.146;2024-02-21T13:24:32;11.20;99.90
780;DHT22;373;49.342;8.146;2024-02-21T13:26:59;11.20;1.00
780;DHT22;373;49.342;8.146;2024-02-21T13:29:27;11.10;1.00
780;DHT22;373;49.342;8.146;2024-02-21T13:31:54;11.20;1.00
780;DHT22;373;49.342;8.146;2024-02-21T13:34:21;11.20;1.00
780;DHT22;373;49.342;8.146;2024-02-21T13:36:50;11.10;1.00
780;DHT22;373;49.342;8.146;2024-02-21T13:39:18;11.20;99.90
780;DHT22;373;49.342;8.146;2024-02-21T13:41:45;11.20;99.90
780;DHT22;373;49.342;8.146;2024-02-21T13:44:13;11.30;1.00
780;DHT22;373;49.342;8.146;2024-02-21T13:46:40;11.40;17.10
780;DHT22;373;49.342;8.146;2024-02-21T13:49:07;11.50;94.90
780;DHT22;373;49.342;8.146;2024-02-21T13:51:34;11.40;99.90
780;DHT22;373;49.342;8.146;2024-02-21T13:54:02;11.30;69.80
780;DHT22;373;49.342;8.146;2024-02-21T13:56:32;11.30;1.00
780;DHT22;373;49.342;8.146;2024-02-21T13:59:00;11.40;1.00
780;DHT22;373;49.342;8.146;2024-02-21T14:01:28;11.40;1.00
780;DHT22;373;49.342;8.146;2024-02-21T14:03:55;11.60;99.90
780;DHT22;373;49.342;8.146;2024-02-21T14:06:22;11.40;23.60
780;DHT22;373;49.342;8.146;2024-02-21T14:08:49;11.30;99.90
780;DHT22;373;49.342;8.146;2024-02-21T14:11:16;11.30;1.00
780;DHT22;373;49.342;8.146;2024-02-21T14:13:45;11.30;1.00
780;DHT22;373;49.342;8.146;2024-02-21T14:16:12;11.20;29.70
780;DHT22;373;49.342;8.146;2024-02-21T14:18:39;11.20;1.00
780;DHT22;373;49.342;8.146;2024-02-21T14:21:08;11.30;99.90
780;DHT22;373;49.342;8.146;2024-02-21T14:23:36;11.30;1.00
780;DHT22;373;49.342;8.146;2024-02-21T14:26:03;11.10;5.10
780;DHT22;373;49.342;8.146;2024-02-21T14:28:31;11.10;99.90
780;DHT22;373;49.342;8.146;2024-02-21T14:31:00;11.00;99.90
780;DHT22;373;49.342;8.146;2024-02-21T14:33:29;10.90;1.00
780;DHT22;373;49.342;8.146;2024-02-21T14:35:57;10.90;1.00
780;DHT22;373;49.342;8.146;2024-02-21T14:38:24;10.90;1.00
780;DHT22;373;49.342;8.146;2024-02-21T14:40:51;10.90;99.90
780;DHT22;373;49.342;8.146;2024-02-21T14:43:18;11.00;1.00
780;DHT22;373;49.342;8.146;2024-02-21T14:45:47;10.90;99.90
780;DHT22;373;49.342;8.146;2024-02-21T14:48:16;10.90;1.00
780;DHT22;373;49.342;8.146;2024-02-21T14:50:43;10.80;1.00
780;DHT22;373;49.342;8.146;2024-02-21T14:53:10;10.80;99.90
780;DHT22;373;49.342;8.146;2024-02-21T14:55:37;10.80;99.90
780;DHT22;373;49.342;8.146;2024-02-21T14:58:06;11.10;99.90
780;DHT22;373;49.342;8.146;2024-02-21T15:00:33;11.00;99.90
780;DHT22;373;49.342;8.146;2024-02-21T15:03:01;11.10;1.00
780;DHT22;373;49.342;8.146;2024-02-21T15:05:29;11.10;99.90
780;DHT22;373;49.342;8.146;2024-02-21T15:07:56;11.00;99.90
780;DHT22;373;49.342;8.146;2024-02-21T15:10:24;10.90;1.00
780;DHT22;373;49.342;8.146;2024-02-21T15:12:52;10.80;99.90
780;DHT22;373;49.342;8.146;2024-02-21T15:15:19;10.70;99.90
780;DHT22;373;49.342;8.146;2024-02-21T15:17:46;10.60;1.00
780;DHT22;373;49.342;8.146;2024-02-21T15:20:13;10.50;99.90
780;DHT22;373;49.342;8.146;2024-02-21T15:22:41;10.50;99.90
780;DHT22;373;49.342;8.146;2024-02-21T15:25:08;10.60;1.00
780;DHT22;373;49.342;8.146;2024-02-21T15:27:41;10.70;1.00
780;DHT22;373;49.342;8.146;2024-02-21T15:30:09;10.80;1.00
780;DHT22;373;49.342;8.146;2024-02-21T15:32:36;10.80;99.90
780;DHT22;373;49.342;8.146;2024-02-21T15:35:04;10.70;90.00
780;DHT22;373;49.342;8.146;2024-02-21T15:37:32;10.50;1.00
780;DHT22;373;49.342;8.146;2024-02-21T15:40:00;10.50;1.00
780;DHT22;373;49.342;8.146;2024-02-21T15:42:28;10.40;99.90
780;DHT22;373;49.342;8.146;2024-02-21T15:44:57;10.40;1.00
780;DHT22;373;49.342;8.146;2024-02-21T15:47:26;10.40;1.00
780;DHT22;373;49.342;8.146;2024-02-21T15:49:53;10.30;99.90
780;DHT22;373;49.342;8.146;2024-02-21T15:52:20;10.20;1.00
780;DHT22;373;49.342;8.146;2024-02-21T15:54:47;10.20;1.00
780;DHT22;373;49.342;8.146;2024-02-21T15:57:16;10.20;1.00
780;DHT22;373;49.342;8.146;2024-02-21T15:59:43;10.30;56.90
780;DHT22;373;49.342;8.146;2024-02-21T16:02:10;10.20;87.10
780;DHT22;373;49.342;8.146;2024-02-21T16:04:37;10.10;99.90
780;DHT22;373;49.342;8.146;2024-02-21T16:07:04;10.10;99.90
780;DHT22;373;49.342;8.146;2024-02-21T16:09:31;10.10;99.90
780;DHT22;373;49.342;8.146;2024-02-21T16:11:58;10.10;99.90
780;DHT22;373;49.342;8.146;2024-02-21T16:14:32;10.20;99.90
780;DHT22;373;49.342;8.146;2024-02-21T16:16:59;10.10;99.90
780;DHT22;373;49.342;8.146;2024-02-21T16:19:26;10.00;99.90
780;DHT22;373;49.342;8.146;2024-02-21T16:21:53;10.00;96.10
780;DHT22;373;49.342;8.146;2024-02-21T16:24:20;10.20;18.10
780;DHT22;373;49.342;8.146;2024-02-21T16:26:47;10.30;19.60
780;DHT22;373;49.342;8.146;2024-02-21T16:29:14;10.30;1.00
780;DHT22;373;49.342;8.146;2024-02-21T16:31:43;10.40;1.00
780;DHT22;373;49.342;8.146;2024-02-21T16:34:10;10.50;99.90
780;DHT22;373;49.342;8.146;2024-02-21T16:36:37;10.40;99.90
780;DHT22;373;49.342;8.146;2024-02-21T16:39:05;10.50;99.90
780;DHT22;373;49.342;8.146;2024-02-21T16:41:32;10.50;99.90
780;DHT22;373;49.342;8.146;2024-02-21T16:43:59;10.50;99.90
780;DHT22;373;49.342;8.146;2024-02-21T16:46:27;10.40;99.90
780;DHT22;373;49.342;8.146;2024-02-21T16:48:55;10.20;1.00
780;DHT22;373;49.342;8.146;2024-02-21T16:51:22;10.10;14.80
780;DHT22;373;49.342;8.146;2024-02-21T16:53:49;10.00;99.90
780;DHT22;373;49.342;8.146;2024-02-21T16:56:16;10.10;99.90
780;DHT22;373;49.342;8.146;2024-02-21T16:58:44;9.90;99.90
780;DHT22;373;49.342;8.146;2024-02-21T17:01:11;9.90;99.90
780;DHT22;373;49.342;8.146;2024-02-21T17:03:38;9.80;99.90
780;DHT22;373;49.342;8.146;2024-02-21T17:06:07;9.80;99.90
780;DHT22;373;49.342;8.146;2024-02-21T17:08:34;9.70;99.90
780;DHT22;373;49.342;8.146;2024-02-21T17:11:01;9.70;99.90
780;DHT22;373;49.342;8.146;2024-02-21T17:13:28;10.00;99.90